sensor_id;sensor_type;location;lat;lon;timestamp;temperature;humidity
3086;DHT22;52812;48.960;9.108;2023-11-19T00:00:20;7.10;99.90
3086;DHT22;52812;48.960;9.108;2023-11-19T00:02:46;7.10;99.90
3086;DHT22;52812;48.960;9.108;2023-11-19T00:05:13;7.10;99.90
3086;DHT22;52812;48.960;9.108;2023-11-19T00:07:39;7.10;99.90
3086;DHT22;52812;48.960;9.108;2023-11-19T00:10:12;7.10;99.90
3086;DHT22;52812;48.960;9.108;2023-11-19T00:12:42;7.10;99.90
3086;DHT22;52812;48.960;9.108;2023-11-19T00:15:09;7.10;99.90
3086;DHT22;52812;48.960;9.108;2023-11-19T00:17:38;7.10;99.90
3086;DHT22;52812;48.960;9.108;2023-11-19T00:20:07;7.20;99.90
3086;DHT22;52812;48.960;9.108;2023-11-19T00:22:33;7.20;99.90
3086;DHT22;52812;48.960;9.108;2023-11-19T00:24:59;7.30;99.90
3086;DHT22;52812;48.960;9.108;2023-11-19T00:27:25;7.30;99.90
3086;DHT22;52812;48.960;9.108;2023-11-19T00:29:51;7.30;99.90
3086;DHT22;52812;48.960;9.108;2023-11-19T00:32:17;7.30;99.90
3086;DHT22;52812;48.960;9.108;2023-11-19T00:34:46;7.30;99.90
3086;DHT22;52812;48.960;9.108;2023-11-19T00:37:13;7.30;99.90
3086;DHT22;52812;48.960;9.108;2023-11-19T00:39:41;7.30;99.90
3086;DHT22;52812;48.960;9.108;2023-11-19T00:42:07;7.30;99.90
3086;DHT22;52812;48.960;9.108;2023-11-19T00:44:32;7.30;99.90
3086;DHT22;52812;48.960;9.108;2023-11-19T00:46:58;7.40;99.90
3086;DHT22;52812;48.960;9.108;2023-11-19T00:49:25;7.30;99.90
3086;DHT22;52812;48.960;9.108;2023-11-19T00:51:50;7.30;99.90
3086;DHT22;52812;48.960;9.108;2023-11-19T00:54:16;7.30;99.90
3086;DHT22;52812;48.960;9.108;2023-11-19T00:56:42;7.30;99.90
3086;DHT22;52812;48.960;9.108;2023-11-19T00:59:08;7.30;99.90
3086;DHT22;52812;48.960;9.108;2023-11-19T01:01:33;7.40;99.90
3086;DHT22;52812;48.960;9.108;2023-11-19T01:03:59;7.40;99.90
3086;DHT22;52812;48.960;9.108;2023-11-19T01:06:31;7.40;99.90
3086;DHT22;52812;48.960;9.108;2023-11-19T01:08:58;7.40;99.90
3086;DHT22;52812;48.960;9.108;2023-11-19T01:11:24;7.40;99.90
3086;DHT22;52812;48.960;9.108;2023-11-19T01:13:51;7.40;99.90
3086;DHT22;52812;48.960;9.108;2023-11-19T01:16:17;7.40;99.90
3086;DHT22;52812;48.960;9.108;2023-11-19T01:18:44;7.40;99.90
3086;DHT22;52812;48.960;9.108;2023-11-19T01:21:09;7.40;99.90
3086;DHT22;52812;48.960;9.108;2023-11-19T01:23:35;7.40;99.90
3086;DHT22;52812;48.960;9.108;2023-11-19T01:26:02;7.40;99.90
3086;DHT22;52812;48.960;9.108;2023-11-19T01:28:28;7.50;99.90
3086;DHT22;52812;48.960;9.108;2023-11-19T01:30:54;7.50;99.90
3086;DHT22;52812;48.960;9.108;2023-11-19T01:33:20;7.50;99.90
3086;DHT22;52812;48.960;9.108;2023-11-19T01:35:46;7.60;99.90
3086;DHT22;52812;48.960;9.108;2023-11-19T01:38:12;7.60;99.90
3086;DHT22;52812;48.960;9.108;2023-11-19T01:40:38;7.60;99.90
3086;DHT22;52812;48.960;9.108;2023-11-19T01:43:03;7.70;99.90
3086;DHT22;52812;48.960;9.108;2023-11-19T01:45:30;7.70;99.90
3086;DHT22;52812;48.960;9.108;2023-11-19T01:47:57;7.70;99.90
3086;DHT22;52812;48.960;9.108;2023-11-19T01:50:24;7.70;99.90
3086;DHT22;52812;48.960;9.108;2023-11-19T01:52:52;7.70;99.90
3086;DHT22;52812;48.960;9.108;2023-11-19T01:55:20;7.70;99.90
3086;DHT22;52812;48.960;9.108;2023-11-19T01:57:46;7.70;99.90
3086;DHT22;52812;48.960;9.108;2023-11-19T02:00:13;7.70;99.90
3086;DHT22;52812;48.960;9.108;2023-11-19T02:02:42;7.70;99.90
3086;DHT22;52812;48.960;9.108;2023-11-19T02:05:10;7.70;99.90
3086;DHT22;52812;48.960;9.108;2023-11-19T02:07:36;7.70;99.90
3086;DHT22;52812;48.960;9.108;2023-11-19T02:10:02;7.70;99.90
3086;DHT22;52812;48.960;9.108;2023-11-19T02:12:28;7.70;99.90
3086;DHT22;52812;48.960;9.108;2023-11-19T02:14:54;7.70;99.90
3086;DHT22;52812;48.960;9.108;2023-11-19T02:17:30;7.60;99.90
3086;DHT22;52812;48.960;9.108;2023-11-19T02:20:06;7.60;99.90
3086;DHT22;52812;48.960;9.108;2023-11-19T02:22:37;7.70;99.90
3086;DHT22;52812;48.960;9.108;2023-11-19T02:25:17;7.70;99.90
3086;DHT22;52812;48.960;9.108;2023-11-19T02:27:59;7.80;99.90
3086;DHT22;52812;48.960;9.108;2023-11-19T02:30:26;7.80;99.90
3086;DHT22;52812;48.960;9.108;2023-11-19T02:32:52;7.80;99.90
3086;DHT22;52812;48.960;9.108;2023-11-19T02:35:19;7.90;99.90
3086;DHT22;52812;48.960;9.108;2023-11-19T02:37:47;7.90;99.90
3086;DHT22;52812;48.960;9.108;2023-11-19T02:40:13;7.90;99.90
3086;DHT22;52812;48.960;9.108;2023-11-19T02:42:39;7.90;99.90
3086;DHT22;52812;48.960;9.108;2023-11-19T02:45:05;7.90;99.90
3086;DHT22;52812;48.960;9.108;2023-11-19T02:47:32;7.80;99.90
3086;DHT22;52812;48.960;9.108;2023-11-19T02:50:02;7.90;99.90
3086;DHT22;52812;48.960;9.108;2023-11-19T02:52:28;7.90;99.90
3086;DHT22;52812;48.960;9.108;2023-11-19T02:54:53;8.00;99.90
3086;DHT22;52812;48.960;9.108;2023-11-19T02:57:19;8.00;99.90
3086;DHT22;52812;48.960;9.108;2023-11-19T02:59:46;8.00;99.90
3086;DHT22;52812;48.960;9.108;2023-11-19T03:02:11;8.00;99.90
3086;DHT22;52812;48.960;9.108;2023-11-19T03:04:38;8.00;99.90
3086;DHT22;52812;48.960;9.108;2023-11-19T03:07:08;8.00;99.90
3086;DHT22;52812;48.960;9.108;2023-11-19T03:09:33;8.00;99.90
3086;DHT22;52812;48.960;9.108;2023-11-19T03:12:01;8.00;99.90
3086;DHT22;52812;48.960;9.108;2023-11-19T03:14:27;8.00;99.90
3086;DHT22;52812;48.960;9.108;2023-11-19T03:16:53;8.00;99.90
3086;DHT22;52812;48.960;9.108;2023-11-19T03:19:19;8.00;99.90
3086;DHT22;52812;48.960;9.108;2023-11-19T03:21:44;8.00;99.90
3086;DHT22;52812;48.960;9.108;2023-11-19T03:24:12;7.90;99.90
3086;DHT22;52812;48.960;9.108;2023-11-19T03:26:38;7.90;99.90
3086;DHT22;52812;48.960;9.108;2023-11-19T03:29:04;8.00;99.90
3086;DHT22;52812;48.960;9.108;2023-11-19T03:31:30;8.00;99.90
3086;DHT22;52812;48.960;9.108;2023-11-19T03:33:55;8.00;99.90
3086;DHT22;52812;48.960;9.108;2023-11-19T03:36:21;8.00;99.90
3086;DHT22;52812;48.960;9.108;2023-11-19T03:38:48;8.00;99.90
3086;DHT22;52812;48.960;9.108;2023-11-19T03:41:14;8.10;99.90
3086;DHT22;52812;48.960;9.108;2023-11-19T03:43:40;8.10;99.90
3086;DHT22;52812;48.960;9.108;2023-11-19T03:46:21;8.00;99.90
3086;DHT22;52812;48.960;9.108;2023-11-19T03:48:48;8.10;99.90
3086;DHT22;52812;48.960;9.108;2023-11-19T03:51:14;8.10;99.90
3086;DHT22;52812;48.960;9.108;2023-11-19T03:53:45;8.10;99.90
3086;DHT22;52812;48.960;9.108;2023-11-19T03:56:11;8.20;99.90
3086;DHT22;52812;48.960;9.108;2023-11-19T03:58:37;8.20;99.90
3086;DHT22;52812;48.960;9.108;2023-11-19T04:01:04;8.20;99.90
3086;DHT22;52812;48.960;9.108;2023-11-19T04:03:30;8.20;99.90
3086;DHT22;52812;48.960;9.108;2023-11-19T04:05:55;8.20;99.90
3086;DHT22;52812;48.960;9.108;2023-11-19T04:08:22;8.20;99.90
3086;DHT22;52812;48.960;9.108;2023-11-19T04:10:47;8.20;99.90
3086;DHT22;52812;48.960;9.108;2023-11-19T04:13:13;8.20;99.90
3086;DHT22;52812;48.960;9.108;2023-11-19T04:15:39;8.30;99.90
3086;DHT22;52812;48.960;9.108;2023-11-19T04:18:04;8.20;99.90
3086;DHT22;52812;48.960;9.108;2023-11-19T04:20:30;8.20;99.90
3086;DHT22;52812;48.960;9.108;2023-11-19T04:22:57;8.30;99.90
3086;DHT22;52812;48.960;9.108;2023-11-19T04:25:23;8.30;99.90
3086;DHT22;52812;48.960;9.108;2023-11-19T04:27:51;8.30;99.90
3086;DHT22;52812;48.960;9.108;2023-11-19T04:30:17;8.30;99.90
3086;DHT22;52812;48.960;9.108;2023-11-19T04:32:43;8.30;99.90
3086;DHT22;52812;48.960;9.108;2023-11-19T04:35:09;8.30;99.90
3086;DHT22;52812;48.960;9.108;2023-11-19T04:37:36;8.30;99.90
3086;DHT22;52812;48.960;9.108;2023-11-19T04:40:02;8.30;99.90
3086;DHT22;52812;48.960;9.108;2023-11-19T04:42:28;8.30;99.90
3086;DHT22;52812;48.960;9.108;2023-11-19T04:44:55;8.30;99.90
3086;DHT22;52812;48.960;9.108;2023-11-19T04:47:20;8.30;99.90
3086;DHT22;52812;48.960;9.108;2023-11-19T04:49:46;8.30;99.90
3086;DHT22;52812;48.960;9.108;2023-11-19T04:52:12;8.30;99.90
3086;DHT22;52812;48.960;9.108;2023-11-19T04:54:41;8.30;99.90
3086;DHT22;52812;48.960;9.108;2023-11-19T04:57:08;8.30;99.90
3086;DHT22;52812;48.960;9.108;2023-11-19T04:59:36;8.40;99.90
3086;DHT22;52812;48.960;9.108;2023-11-19T05:02:02;8.40;99.90
3086;DHT22;52812;48.960;9.108;2023-11-19T05:04:27;8.40;99.90
3086;DHT22;52812;48.960;9.108;2023-11-19T05:06:53;8.40;99.90
3086;DHT22;52812;48.960;9.108;2023-11-19T05:09:18;8.40;99.90
3086;DHT22;52812;48.960;9.108;2023-11-19T05:11:44;8.40;99.90
3086;DHT22;52812;48.960;9.108;2023-11-19T05:14:10;8.50;99.90
3086;DHT22;52812;48.960;9.108;2023-11-19T05:16:35;8.50;99.90
3086;DHT22;52812;48.960;9.108;2023-11-19T05:19:01;8.50;99.90
3086;DHT22;52812;48.960;9.108;2023-11-19T05:21:26;8.50;99.90
3086;DHT22;52812;48.960;9.108;2023-11-19T05:23:52;8.50;99.90
3086;DHT22;52812;48.960;9.108;2023-11-19T05:26:19;8.60;99.90
3086;DHT22;52812;48.960;9.108;2023-11-19T05:28:45;8.60;99.90
3086;DHT22;52812;48.960;9.108;2023-11-19T05:31:11;8.60;99.90
3086;DHT22;52812;48.960;9.108;2023-11-19T05:33:36;8.60;99.90
3086;DHT22;52812;48.960;9.108;2023-11-19T05:36:03;8.60;99.90
3086;DHT22;52812;48.960;9.108;2023-11-19T05:38:29;8.60;99.90
3086;DHT22;52812;48.960;9.108;2023-11-19T05:40:55;8.60;99.90
3086;DHT22;52812;48.960;9.108;2023-11-19T05:43:21;8.80;99.90
3086;DHT22;52812;48.960;9.108;2023-11-19T05:45:47;9.00;99.90
3086;DHT22;52812;48.960;9.108;2023-11-19T05:48:13;9.60;99.90
3086;DHT22;52812;48.960;9.108;2023-11-19T05:50:39;10.00;99.90
3086;DHT22;52812;48.960;9.108;2023-11-19T05:53:05;10.10;99.90
3086;DHT22;52812;48.960;9.108;2023-11-19T05:55:33;10.30;99.90
3086;DHT22;52812;48.960;9.108;2023-11-19T05:58:00;10.30;99.90
3086;DHT22;52812;48.960;9.108;2023-11-19T06:00:25;10.50;99.90
3086;DHT22;52812;48.960;9.108;2023-11-19T06:02:52;10.40;99.90
3086;DHT22;52812;48.960;9.108;2023-11-19T06:05:18;10.40;99.90
3086;DHT22;52812;48.960;9.108;2023-11-19T06:07:43;10.50;99.90
3086;DHT22;52812;48.960;9.108;2023-11-19T06:10:09;10.50;99.90
3086;DHT22;52812;48.960;9.108;2023-11-19T06:12:36;10.60;99.90
3086;DHT22;52812;48.960;9.108;2023-11-19T06:15:07;10.60;99.90
3086;DHT22;52812;48.960;9.108;2023-11-19T06:17:34;10.60;99.90
3086;DHT22;52812;48.960;9.108;2023-11-19T06:20:00;10.60;99.90
3086;DHT22;52812;48.960;9.108;2023-11-19T06:22:25;10.50;99.90
3086;DHT22;52812;48.960;9.108;2023-11-19T06:24:51;10.50;99.90
3086;DHT22;52812;48.960;9.108;2023-11-19T06:27:16;10.40;99.90
3086;DHT22;52812;48.960;9.108;2023-11-19T06:29:42;10.50;99.90
3086;DHT22;52812;48.960;9.108;2023-11-19T06:32:07;10.50;99.90
3086;DHT22;52812;48.960;9.108;2023-11-19T06:34:34;10.50;99.90
3086;DHT22;52812;48.960;9.108;2023-11-19T06:36:59;10.60;99.90
3086;DHT22;52812;48.960;9.108;2023-11-19T06:39:25;10.60;99.90
3086;DHT22;52812;48.960;9.108;2023-11-19T06:41:51;10.70;99.90
3086;DHT22;52812;48.960;9.108;2023-11-19T06:44:17;10.70;99.90
3086;DHT22;52812;48.960;9.108;2023-11-19T06:46:43;10.60;99.90
3086;DHT22;52812;48.960;9.108;2023-11-19T06:49:09;10.60;99.90
3086;DHT22;52812;48.960;9.108;2023-11-19T06:51:34;10.60;99.90
3086;DHT22;52812;48.960;9.108;2023-11-19T06:54:00;10.60;99.90
3086;DHT22;52812;48.960;9.108;2023-11-19T06:56:26;10.60;99.90
3086;DHT22;52812;48.960;9.108;2023-11-19T06:58:52;10.60;99.90
3086;DHT22;52812;48.960;9.108;2023-11-19T07:01:19;10.60;99.90
3086;DHT22;52812;48.960;9.108;2023-11-19T07:03:45;10.50;99.90
3086;DHT22;52812;48.960;9.108;2023-11-19T07:06:12;10.50;99.90
3086;DHT22;52812;48.960;9.108;2023-11-19T07:08:44;10.50;99.90
3086;DHT22;52812;48.960;9.108;2023-11-19T07:11:10;10.50;99.90
3086;DHT22;52812;48.960;9.108;2023-11-19T07:13:37;10.50;99.90
3086;DHT22;52812;48.960;9.108;2023-11-19T07:16:03;10.50;99.90
3086;DHT22;52812;48.960;9.108;2023-11-19T07:18:29;10.50;99.90
3086;DHT22;52812;48.960;9.108;2023-11-19T07:20:54;10.50;99.90
3086;DHT22;52812;48.960;9.108;2023-11-19T07:23:20;10.50;99.90
3086;DHT22;52812;48.960;9.108;2023-11-19T07:25:47;10.60;99.90
3086;DHT22;52812;48.960;9.108;2023-11-19T07:28:13;10.60;99.90
3086;DHT22;52812;48.960;9.108;2023-11-19T07:30:39;10.70;99.90
3086;DHT22;52812;48.960;9.108;2023-11-19T07:33:05;10.60;99.90
3086;DHT22;52812;48.960;9.108;2023-11-19T07:35:32;10.60;99.90
3086;DHT22;52812;48.960;9.108;2023-11-19T07:37:57;10.50;99.90
3086;DHT22;52812;48.960;9.108;2023-11-19T07:40:24;10.50;99.90
3086;DHT22;52812;48.960;9.108;2023-11-19T07:42:50;10.50;99.90
3086;DHT22;52812;48.960;9.108;2023-11-19T07:45:16;10.40;99.90
3086;DHT22;52812;48.960;9.108;2023-11-19T07:47:42;10.40;99.90
3086;DHT22;52812;48.960;9.108;2023-11-19T07:50:10;10.40;99.90
3086;DHT22;52812;48.960;9.108;2023-11-19T07:52:37;10.40;99.90
3086;DHT22;52812;48.960;9.108;2023-11-19T07:55:03;10.40;99.90
3086;DHT22;52812;48.960;9.108;2023-11-19T07:57:28;10.40;99.90
3086;DHT22;52812;48.960;9.108;2023-11-19T07:59:57;10.50;99.90
3086;DHT22;52812;48.960;9.108;2023-11-19T08:02:22;10.50;99.90
3086;DHT22;52812;48.960;9.108;2023-11-19T08:04:49;10.60;99.90
3086;DHT22;52812;48.960;9.108;2023-11-19T08:07:18;10.70;99.90
3086;DHT22;52812;48.960;9.108;2023-11-19T08:09:44;10.70;99.90
3086;DHT22;52812;48.960;9.108;2023-11-19T08:12:10;10.70;99.90
3086;DHT22;52812;48.960;9.108;2023-11-19T08:14:35;10.70;99.90
3086;DHT22;52812;48.960;9.108;2023-11-19T08:17:02;10.60;99.90
3086;DHT22;52812;48.960;9.108;2023-11-19T08:19:28;10.80;99.90
3086;DHT22;52812;48.960;9.108;2023-11-19T08:21:53;10.80;99.90
3086;DHT22;52812;48.960;9.108;2023-11-19T08:24:19;10.90;99.90
3086;DHT22;52812;48.960;9.108;2023-11-19T08:26:45;11.00;99.90
3086;DHT22;52812;48.960;9.108;2023-11-19T08:29:13;11.10;99.90
3086;DHT22;52812;48.960;9.108;2023-11-19T08:31:39;11.20;99.90
3086;DHT22;52812;48.960;9.108;2023-11-19T08:34:05;11.10;99.90
3086;DHT22;52812;48.960;9.108;2023-11-19T08:36:34;11.10;99.90
3086;DHT22;52812;48.960;9.108;2023-11-19T08:39:00;11.10;99.90
3086;DHT22;52812;48.960;9.108;2023-11-19T08:41:25;11.10;99.90
3086;DHT22;52812;48.960;9.108;2023-11-19T08:43:51;11.20;99.90
3086;DHT22;52812;48.960;9.108;2023-11-19T08:46:17;11.20;99.90
3086;DHT22;52812;48.960;9.108;2023-11-19T08:48:43;11.40;99.90
3086;DHT22;52812;48.960;9.108;2023-11-19T08:51:08;11.70;99.90
3086;DHT22;52812;48.960;9.108;2023-11-19T08:53:34;11.90;99.90
3086;DHT22;52812;48.960;9.108;2023-11-19T08:56:00;12.00;99.90
3086;DHT22;52812;48.960;9.108;2023-11-19T08:58:27;12.20;99.90
3086;DHT22;52812;48.960;9.108;2023-11-19T09:00:52;12.30;99.90
3086;DHT22;52812;48.960;9.108;2023-11-19T09:03:18;12.40;99.90
3086;DHT22;52812;48.960;9.108;2023-11-19T09:05:44;12.60;99.90
3086;DHT22;52812;48.960;9.108;2023-11-19T09:08:10;12.70;99.90
3086;DHT22;52812;48.960;9.108;2023-11-19T09:10:37;12.70;99.90
3086;DHT22;52812;48.960;9.108;2023-11-19T09:13:03;12.60;99.90
3086;DHT22;52812;48.960;9.108;2023-11-19T09:15:29;12.50;99.90
3086;DHT22;52812;48.960;9.108;2023-11-19T09:17:55;12.40;99.90
3086;DHT22;52812;48.960;9.108;2023-11-19T09:20:21;12.40;99.90
3086;DHT22;52812;48.960;9.108;2023-11-19T09:22:47;12.40;99.90
3086;DHT22;52812;48.960;9.108;2023-11-19T09:25:13;12.50;99.90
3086;DHT22;52812;48.960;9.108;2023-11-19T09:27:42;12.70;99.90
3086;DHT22;52812;48.960;9.108;2023-11-19T09:30:09;12.80;99.90
3086;DHT22;52812;48.960;9.108;2023-11-19T09:32:35;12.80;99.90
3086;DHT22;52812;48.960;9.108;2023-11-19T09:35:01;12.80;99.90
3086;DHT22;52812;48.960;9.108;2023-11-19T09:37:28;12.90;99.90
3086;DHT22;52812;48.960;9.108;2023-11-19T09:39:53;12.90;99.90
3086;DHT22;52812;48.960;9.108;2023-11-19T09:42:19;12.90;99.90
3086;DHT22;52812;48.960;9.108;2023-11-19T09:44:47;12.90;99.90
3086;DHT22;52812;48.960;9.108;2023-11-19T09:47:14;12.90;99.90
3086;DHT22;52812;48.960;9.108;2023-11-19T09:49:40;12.90;99.90
3086;DHT22;52812;48.960;9.108;2023-11-19T09:52:05;12.90;99.90
3086;DHT22;52812;48.960;9.108;2023-11-19T09:54:31;13.00;99.90
3086;DHT22;52812;48.960;9.108;2023-11-19T09:56:58;13.00;99.90
3086;DHT22;52812;48.960;9.108;2023-11-19T09:59:29;13.10;99.90
3086;DHT22;52812;48.960;9.108;2023-11-19T10:01:55;13.10;99.90
3086;DHT22;52812;48.960;9.108;2023-11-19T10:04:22;13.10;99.90
3086;DHT22;52812;48.960;9.108;2023-11-19T10:06:49;13.10;99.90
3086;DHT22;52812;48.960;9.108;2023-11-19T10:09:15;13.00;99.90
3086;DHT22;52812;48.960;9.108;2023-11-19T10:11:40;13.10;99.90
3086;DHT22;52812;48.960;9.108;2023-11-19T10:14:06;13.20;99.90
3086;DHT22;52812;48.960;9.108;2023-11-19T10:16:34;13.30;99.90
3086;DHT22;52812;48.960;9.108;2023-11-19T10:19:03;13.50;99.90
3086;DHT22;52812;48.960;9.108;2023-11-19T10:21:29;13.50;99.90
3086;DHT22;52812;48.960;9.108;2023-11-19T10:23:57;13.70;99.90
3086;DHT22;52812;48.960;9.108;2023-11-19T10:26:26;13.70;99.90
3086;DHT22;52812;48.960;9.108;2023-11-19T10:28:52;13.70;99.90
3086;DHT22;52812;48.960;9.108;2023-11-19T10:31:19;13.60;99.90
3086;DHT22;52812;48.960;9.108;2023-11-19T10:33:50;13.50;99.90
3086;DHT22;52812;48.960;9.108;2023-11-19T10:36:16;13.50;99.90
3086;DHT22;52812;48.960;9.108;2023-11-19T10:38:54;13.60;99.90
3086;DHT22;52812;48.960;9.108;2023-11-19T10:41:30;13.60;99.90
3086;DHT22;52812;48.960;9.108;2023-11-19T10:43:56;13.70;99.90
3086;DHT22;52812;48.960;9.108;2023-11-19T10:46:22;13.80;99.90
3086;DHT22;52812;48.960;9.108;2023-11-19T10:48:51;14.00;99.90
3086;DHT22;52812;48.960;9.108;2023-11-19T10:51:20;14.00;99.90
3086;DHT22;52812;48.960;9.108;2023-11-19T10:53:49;14.10;99.90
3086;DHT22;52812;48.960;9.108;2023-11-19T10:56:16;14.10;99.90
3086;DHT22;52812;48.960;9.108;2023-11-19T10:58:45;14.20;99.90
3086;DHT22;52812;48.960;9.108;2023-11-19T11:01:19;14.20;99.90
3086;DHT22;52812;48.960;9.108;2023-11-19T11:03:46;14.30;99.90
3086;DHT22;52812;48.960;9.108;2023-11-19T11:06:13;14.40;99.90
3086;DHT22;52812;48.960;9.108;2023-11-19T11:08:39;14.40;99.90
3086;DHT22;52812;48.960;9.108;2023-11-19T11:11:06;14.30;99.90
3086;DHT22;52812;48.960;9.108;2023-11-19T11:13:33;14.30;99.90
3086;DHT22;52812;48.960;9.108;2023-11-19T11:16:00;14.30;99.90
3086;DHT22;52812;48.960;9.108;2023-11-19T11:18:26;14.50;99.90
3086;DHT22;52812;48.960;9.108;2023-11-19T11:20:55;14.60;99.90
3086;DHT22;52812;48.960;9.108;2023-11-19T11:39:41;14.40;99.90
3086;DHT22;52812;48.960;9.108;2023-11-19T11:45:06;14.40;99.90
3086;DHT22;52812;48.960;9.108;2023-11-19T11:50:17;14.50;99.90
3086;DHT22;52812;48.960;9.108;2023-11-19T11:57:56;14.30;99.90
3086;DHT22;52812;48.960;9.108;2023-11-19T12:02:49;14.50;99.90
3086;DHT22;52812;48.960;9.108;2023-11-19T12:05:15;14.50;99.90
3086;DHT22;52812;48.960;9.108;2023-11-19T12:07:41;14.50;99.90
3086;DHT22;52812;48.960;9.108;2023-11-19T12:10:08;14.60;99.90
3086;DHT22;52812;48.960;9.108;2023-11-19T12:12:34;14.60;99.90
3086;DHT22;52812;48.960;9.108;2023-11-19T12:15:02;14.60;99.90
3086;DHT22;52812;48.960;9.108;2023-11-19T12:20:08;14.50;99.90
3086;DHT22;52812;48.960;9.108;2023-11-19T12:22:41;14.40;99.90
3086;DHT22;52812;48.960;9.108;2023-11-19T12:25:09;14.40;99.90
3086;DHT22;52812;48.960;9.108;2023-11-19T12:27:36;14.40;99.90
3086;DHT22;52812;48.960;9.108;2023-11-19T12:30:03;14.30;99.90
3086;DHT22;52812;48.960;9.108;2023-11-19T12:32:50;14.40;99.90
3086;DHT22;52812;48.960;9.108;2023-11-19T12:35:18;14.40;99.90
3086;DHT22;52812;48.960;9.108;2023-11-19T12:37:50;14.40;99.90
3086;DHT22;52812;48.960;9.108;2023-11-19T12:40:17;14.50;99.90
3086;DHT22;52812;48.960;9.108;2023-11-19T12:42:44;14.40;99.90
3086;DHT22;52812;48.960;9.108;2023-11-19T12:45:10;14.40;99.90
3086;DHT22;52812;48.960;9.108;2023-11-19T12:47:43;14.50;99.90
3086;DHT22;52812;48.960;9.108;2023-11-19T12:50:09;14.50;99.90
3086;DHT22;52812;48.960;9.108;2023-11-19T12:52:36;14.60;99.90
3086;DHT22;52812;48.960;9.108;2023-11-19T12:55:04;14.60;99.90
3086;DHT22;52812;48.960;9.108;2023-11-19T12:57:40;14.60;99.90
3086;DHT22;52812;48.960;9.108;2023-11-19T13:00:06;14.50;99.90
3086;DHT22;52812;48.960;9.108;2023-11-19T13:02:49;14.60;99.90
3086;DHT22;52812;48.960;9.108;2023-11-19T13:05:32;14.60;99.90
3086;DHT22;52812;48.960;9.108;2023-11-19T13:08:06;14.60;99.90
3086;DHT22;52812;48.960;9.108;2023-11-19T13:10:33;14.60;99.90
3086;DHT22;52812;48.960;9.108;2023-11-19T13:13:06;14.60;99.90
3086;DHT22;52812;48.960;9.108;2023-11-19T13:15:34;14.60;99.90
3086;DHT22;52812;48.960;9.108;2023-11-19T13:18:00;14.50;99.90
3086;DHT22;52812;48.960;9.108;2023-11-19T13:20:26;14.60;99.90
3086;DHT22;52812;48.960;9.108;2023-11-19T13:23:00;14.70;99.90
3086;DHT22;52812;48.960;9.108;2023-11-19T13:25:27;14.60;99.90
3086;DHT22;52812;48.960;9.108;2023-11-19T13:27:56;14.60;99.90
3086;DHT22;52812;48.960;9.108;2023-11-19T13:30:23;14.50;99.90
3086;DHT22;52812;48.960;9.108;2023-11-19T13:32:49;14.50;99.90
3086;DHT22;52812;48.960;9.108;2023-11-19T13:35:16;14.40;99.90
3086;DHT22;52812;48.960;9.108;2023-11-19T13:37:46;14.50;99.90
3086;DHT22;52812;48.960;9.108;2023-11-19T13:40:12;14.50;99.90
3086;DHT22;52812;48.960;9.108;2023-11-19T13:42:45;14.50;99.90
3086;DHT22;52812;48.960;9.108;2023-11-19T13:45:11;14.40;99.90
3086;DHT22;52812;48.960;9.108;2023-11-19T13:47:43;14.30;99.90
3086;DHT22;52812;48.960;9.108;2023-11-19T13:50:12;14.40;99.90
3086;DHT22;52812;48.960;9.108;2023-11-19T13:52:39;14.40;99.90
3086;DHT22;52812;48.960;9.108;2023-11-19T13:55:07;14.40;99.90
3086;DHT22;52812;48.960;9.108;2023-11-19T13:57:34;14.40;99.90
3086;DHT22;52812;48.960;9.108;2023-11-19T14:00:00;14.30;99.90
3086;DHT22;52812;48.960;9.108;2023-11-19T14:02:27;14.30;99.90
3086;DHT22;52812;48.960;9.108;2023-11-19T14:04:53;14.40;99.90
3086;DHT22;52812;48.960;9.108;2023-11-19T14:07:19;14.40;99.90
3086;DHT22;52812;48.960;9.108;2023-11-19T14:09:44;14.40;99.90
3086;DHT22;52812;48.960;9.108;2023-11-19T14:12:11;14.30;99.90
3086;DHT22;52812;48.960;9.108;2023-11-19T14:14:38;14.30;99.90
3086;DHT22;52812;48.960;9.108;2023-11-19T14:17:05;14.30;99.90
3086;DHT22;52812;48.960;9.108;2023-11-19T14:19:30;14.20;99.90
3086;DHT22;52812;48.960;9.108;2023-11-19T14:21:56;14.20;99.90
3086;DHT22;52812;48.960;9.108;2023-11-19T14:24:21;14.20;99.90
3086;DHT22;52812;48.960;9.108;2023-11-19T14:26:48;14.20;99.90
3086;DHT22;52812;48.960;9.108;2023-11-19T14:29:15;14.10;99.90
3086;DHT22;52812;48.960;9.108;2023-11-19T14:31:41;14.10;99.90
3086;DHT22;52812;48.960;9.108;2023-11-19T14:34:06;14.00;99.90
3086;DHT22;52812;48.960;9.108;2023-11-19T14:36:35;13.90;99.90
3086;DHT22;52812;48.960;9.108;2023-11-19T14:39:01;13.90;99.90
3086;DHT22;52812;48.960;9.108;2023-11-19T14:41:26;13.80;99.90
3086;DHT22;52812;48.960;9.108;2023-11-19T14:43:52;13.70;99.90
3086;DHT22;52812;48.960;9.108;2023-11-19T14:46:18;13.70;99.90
3086;DHT22;52812;48.960;9.108;2023-11-19T14:48:44;13.70;99.90
3086;DHT22;52812;48.960;9.108;2023-11-19T14:51:10;13.70;99.90
3086;DHT22;52812;48.960;9.108;2023-11-19T14:53:35;13.70;99.90
3086;DHT22;52812;48.960;9.108;2023-11-19T14:56:01;13.60;99.90
3086;DHT22;52812;48.960;9.108;2023-11-19T14:58:27;13.50;99.90
3086;DHT22;52812;48.960;9.108;2023-11-19T15:00:53;13.50;99.90
3086;DHT22;52812;48.960;9.108;2023-11-19T15:03:19;13.40;99.90
3086;DHT22;52812;48.960;9.108;2023-11-19T15:05:45;13.40;99.90
3086;DHT22;52812;48.960;9.108;2023-11-19T15:08:11;13.30;99.90
3086;DHT22;52812;48.960;9.108;2023-11-19T15:10:37;13.20;99.90
3086;DHT22;52812;48.960;9.108;2023-11-19T15:13:03;13.30;99.90
3086;DHT22;52812;48.960;9.108;2023-11-19T15:15:30;13.20;99.90
3086;DHT22;52812;48.960;9.108;2023-11-19T15:17:56;13.00;99.90
3086;DHT22;52812;48.960;9.108;2023-11-19T15:20:21;13.00;99.90
3086;DHT22;52812;48.960;9.108;2023-11-19T15:22:47;12.90;99.90
3086;DHT22;52812;48.960;9.108;2023-11-19T15:25:13;12.80;99.90
3086;DHT22;52812;48.960;9.108;2023-11-19T15:27:39;12.80;99.90
3086;DHT22;52812;48.960;9.108;2023-11-19T15:30:05;12.70;99.90
3086;DHT22;52812;48.960;9.108;2023-11-19T15:32:31;12.50;99.90
3086;DHT22;52812;48.960;9.108;2023-11-19T15:35:00;12.50;99.90
3086;DHT22;52812;48.960;9.108;2023-11-19T15:37:25;12.50;99.90
3086;DHT22;52812;48.960;9.108;2023-11-19T15:39:51;12.40;99.90
3086;DHT22;52812;48.960;9.108;2023-11-19T15:42:17;12.30;99.90
3086;DHT22;52812;48.960;9.108;2023-11-19T15:44:43;12.20;99.90
3086;DHT22;52812;48.960;9.108;2023-11-19T15:47:09;12.10;99.90
3086;DHT22;52812;48.960;9.108;2023-11-19T15:49:39;12.00;99.90
3086;DHT22;52812;48.960;9.108;2023-11-19T15:52:05;11.90;99.90
3086;DHT22;52812;48.960;9.108;2023-11-19T15:54:31;11.80;99.90
3086;DHT22;52812;48.960;9.108;2023-11-19T15:56:56;11.70;99.90
3086;DHT22;52812;48.960;9.108;2023-11-19T15:59:22;11.70;99.90
3086;DHT22;52812;48.960;9.108;2023-11-19T16:01:48;11.60;99.90
3086;DHT22;52812;48.960;9.108;2023-11-19T16:04:13;11.60;99.90
3086;DHT22;52812;48.960;9.108;2023-11-19T16:06:39;11.40;99.90
3086;DHT22;52812;48.960;9.108;2023-11-19T16:09:05;11.40;99.90
3086;DHT22;52812;48.960;9.108;2023-11-19T16:11:31;11.30;99.90
3086;DHT22;52812;48.960;9.108;2023-11-19T16:13:56;11.20;99.90
3086;DHT22;52812;48.960;9.108;2023-11-19T16:16:22;11.10;99.90
3086;DHT22;52812;48.960;9.108;2023-11-19T16:18:48;11.10;99.90
3086;DHT22;52812;48.960;9.108;2023-11-19T16:21:13;11.00;99.90